sensor_id;sensor_type;location;lat;lon;timestamp;P1;durP1;ratioP1;P2;durP2;ratioP2
67191;SDS011;54120;53.504;49.426;2022-09-12T00:01:52;4.80;;;4.00;;
67191;SDS011;54120;53.504;49.426;2022-09-12T00:04:24;4.75;;;3.92;;
67191;SDS011;54120;53.504;49.426;2022-09-12T00:06:56;5.28;;;4.10;;
67191;SDS011;54120;53.504;49.426;2022-09-12T00:09:27;4.70;;;4.05;;
67191;SDS011;54120;53.504;49.426;2022-09-12T00:11:58;4.50;;;3.72;;
67191;SDS011;54120;53.504;49.426;2022-09-12T00:14:30;5.28;;;4.15;;
67191;SDS011;54120;53.504;49.426;2022-09-12T00:17:01;5.40;;;4.60;;
67191;SDS011;54120;53.504;49.426;2022-09-12T00:19:33;6.32;;;3.88;;
67191;SDS011;54120;53.504;49.426;2022-09-12T00:22:04;7.90;;;4.20;;
67191;SDS011;54120;53.504;49.426;2022-09-12T00:26:03;5.65;;;3.95;;
67191;SDS011;54120;53.504;49.426;2022-09-12T00:28:36;5.25;;;4.18;;
67191;SDS011;54120;53.504;49.426;2022-09-12T00:31:09;4.50;;;4.05;;
67191;SDS011;54120;53.504;49.426;2022-09-12T00:33:43;4.53;;;4.00;;
67191;SDS011;54120;53.504;49.426;2022-09-12T00:36:16;8.35;;;4.38;;
67191;SDS011;54120;53.504;49.426;2022-09-12T00:38:50;8.37;;;4.60;;
67191;SDS011;54120;53.504;49.426;2022-09-12T00:41:26;4.78;;;4.20;;
67191;SDS011;54120;53.504;49.426;2022-09-12T00:44:49;7.68;;;4.10;;
67191;SDS011;54120;53.504;49.426;2022-09-12T00:47:02;4.78;;;4.05;;
67191;SDS011;54120;53.504;49.426;2022-09-12T00:49:57;6.10;;;4.88;;
67191;SDS011;54120;53.504;49.426;2022-09-12T00:52:45;6.05;;;4.25;;
67191;SDS011;54120;53.504;49.426;2022-09-12T00:55:40;9.13;;;3.97;;
67191;SDS011;54120;53.504;49.426;2022-09-12T00:58:22;4.60;;;4.13;;
67191;SDS011;54120;53.504;49.426;2022-09-12T01:00:58;5.45;;;4.90;;
67191;SDS011;54120;53.504;49.426;2022-09-12T01:03:29;8.23;;;4.05;;
67191;SDS011;54120;53.504;49.426;2022-09-12T01:06:06;6.13;;;3.90;;
67191;SDS011;54120;53.504;49.426;2022-09-12T01:08:48;9.60;;;4.57;;
67191;SDS011;54120;53.504;49.426;2022-09-12T01:11:21;8.18;;;5.28;;
67191;SDS011;54120;53.504;49.426;2022-09-12T01:13:53;9.30;;;5.70;;
67191;SDS011;54120;53.504;49.426;2022-09-12T01:16:25;18.85;;;5.20;;
67191;SDS011;54120;53.504;49.426;2022-09-12T01:32:49;6.30;;;3.72;;
67191;SDS011;54120;53.504;49.426;2022-09-12T01:39:05;5.75;;;4.70;;
67191;SDS011;54120;53.504;49.426;2022-09-12T01:41:42;6.15;;;5.28;;
67191;SDS011;54120;53.504;49.426;2022-09-12T01:47:11;7.50;;;5.63;;
67191;SDS011;54120;53.504;49.426;2022-09-12T01:50:01;6.50;;;5.05;;
67191;SDS011;54120;53.504;49.426;2022-09-12T01:55:33;5.57;;;4.97;;
67191;SDS011;54120;53.504;49.426;2022-09-12T02:03:31;6.28;;;4.80;;
67191;SDS011;54120;53.504;49.426;2022-09-12T02:06:09;9.52;;;6.05;;
67191;SDS011;54120;53.504;49.426;2022-09-12T02:09:00;9.55;;;4.93;;
67191;SDS011;54120;53.504;49.426;2022-09-12T02:11:37;5.95;;;5.35;;
67191;SDS011;54120;53.504;49.426;2022-09-12T02:14:18;5.60;;;4.97;;
67191;SDS011;54120;53.504;49.426;2022-09-12T02:17:00;8.20;;;4.57;;
67191;SDS011;54120;53.504;49.426;2022-09-12T02:19:56;5.55;;;4.82;;
67191;SDS011;54120;53.504;49.426;2022-09-12T02:22:32;9.75;;;5.30;;
67191;SDS011;54120;53.504;49.426;2022-09-12T02:25:07;6.72;;;5.00;;
67191;SDS011;54120;53.504;49.426;2022-09-12T02:27:44;7.35;;;4.93;;
67191;SDS011;54120;53.504;49.426;2022-09-12T02:30:17;11.68;;;6.85;;
67191;SDS011;54120;53.504;49.426;2022-09-12T02:35:57;6.65;;;4.50;;
67191;SDS011;54120;53.504;49.426;2022-09-12T02:41:10;6.35;;;4.95;;
67191;SDS011;54120;53.504;49.426;2022-09-12T02:43:45;10.98;;;4.57;;
67191;SDS011;54120;53.504;49.426;2022-09-12T02:46:30;6.38;;;4.63;;
67191;SDS011;54120;53.504;49.426;2022-09-12T02:49:14;7.10;;;4.65;;
67191;SDS011;54120;53.504;49.426;2022-09-12T02:51:46;12.48;;;4.82;;
67191;SDS011;54120;53.504;49.426;2022-09-12T02:54:19;6.35;;;5.03;;
67191;SDS011;54120;53.504;49.426;2022-09-12T02:56:51;10.70;;;5.38;;
67191;SDS011;54120;53.504;49.426;2022-09-12T02:59:23;7.82;;;5.43;;
67191;SDS011;54120;53.504;49.426;2022-09-12T03:04:36;11.32;;;5.65;;
67191;SDS011;54120;53.504;49.426;2022-09-12T03:16:20;6.60;;;4.88;;
67191;SDS011;54120;53.504;49.426;2022-09-12T03:22:09;5.85;;;5.13;;
67191;SDS011;54120;53.504;49.426;2022-09-12T03:27:35;8.10;;;4.72;;
67191;SDS011;54120;53.504;49.426;2022-09-12T03:30:26;8.48;;;5.68;;
67191;SDS011;54120;53.504;49.426;2022-09-12T03:32:57;10.75;;;5.57;;
67191;SDS011;54120;53.504;49.426;2022-09-12T03:35:28;11.38;;;5.88;;
67191;SDS011;54120;53.504;49.426;2022-09-12T03:38:00;7.85;;;5.60;;
67191;SDS011;54120;53.504;49.426;2022-09-12T03:40:31;10.63;;;5.90;;
67191;SDS011;54120;53.504;49.426;2022-09-12T03:43:03;12.23;;;5.72;;
67191;SDS011;54120;53.504;49.426;2022-09-12T03:45:35;15.73;;;5.97;;
67191;SDS011;54120;53.504;49.426;2022-09-12T03:48:08;6.88;;;5.70;;
67191;SDS011;54120;53.504;49.426;2022-09-12T03:50:39;10.90;;;5.25;;
67191;SDS011;54120;53.504;49.426;2022-09-12T03:53:11;8.45;;;5.45;;
67191;SDS011;54120;53.504;49.426;2022-09-12T03:55:42;8.93;;;5.22;;
67191;SDS011;54120;53.504;49.426;2022-09-12T03:58:13;8.63;;;6.00;;
67191;SDS011;54120;53.504;49.426;2022-09-12T04:00:44;10.30;;;6.40;;
67191;SDS011;54120;53.504;49.426;2022-09-12T04:03:16;7.03;;;5.40;;
67191;SDS011;54120;53.504;49.426;2022-09-12T04:05:49;6.32;;;4.97;;
67191;SDS011;54120;53.504;49.426;2022-09-12T04:08:20;6.63;;;5.07;;
67191;SDS011;54120;53.504;49.426;2022-09-12T04:10:51;12.48;;;5.57;;
67191;SDS011;54120;53.504;49.426;2022-09-12T04:13:22;8.82;;;5.40;;
67191;SDS011;54120;53.504;49.426;2022-09-12T04:16:00;11.88;;;5.80;;
67191;SDS011;54120;53.504;49.426;2022-09-12T04:18:31;9.60;;;5.55;;
67191;SDS011;54120;53.504;49.426;2022-09-12T04:21:07;5.68;;;5.00;;
67191;SDS011;54120;53.504;49.426;2022-09-12T04:23:40;10.48;;;5.38;;
67191;SDS011;54120;53.504;49.426;2022-09-12T04:26:12;7.82;;;5.53;;
67191;SDS011;54120;53.504;49.426;2022-09-12T04:28:45;11.30;;;5.22;;
67191;SDS011;54120;53.504;49.426;2022-09-12T04:31:17;7.68;;;4.82;;
67191;SDS011;54120;53.504;49.426;2022-09-12T04:33:54;8.48;;;5.40;;
67191;SDS011;54120;53.504;49.426;2022-09-12T04:36:27;9.50;;;5.68;;
67191;SDS011;54120;53.504;49.426;2022-09-12T04:38:59;8.93;;;5.20;;
67191;SDS011;54120;53.504;49.426;2022-09-12T04:41:32;7.95;;;5.22;;
67191;SDS011;54120;53.504;49.426;2022-09-12T04:44:07;8.95;;;5.60;;
67191;SDS011;54120;53.504;49.426;2022-09-12T04:46:42;13.35;;;5.80;;
67191;SDS011;54120;53.504;49.426;2022-09-12T04:49:15;7.82;;;5.88;;
67191;SDS011;54120;53.504;49.426;2022-09-12T04:51:47;8.65;;;5.60;;
67191;SDS011;54120;53.504;49.426;2022-09-12T04:54:18;11.48;;;6.05;;
67191;SDS011;54120;53.504;49.426;2022-09-12T04:56:50;11.52;;;6.13;;
67191;SDS011;54120;53.504;49.426;2022-09-12T04:59:22;7.05;;;5.60;;
67191;SDS011;54120;53.504;49.426;2022-09-12T05:01:53;7.85;;;5.72;;
67191;SDS011;54120;53.504;49.426;2022-09-12T05:04:25;8.38;;;6.13;;
67191;SDS011;54120;53.504;49.426;2022-09-12T05:06:56;9.35;;;6.03;;
67191;SDS011;54120;53.504;49.426;2022-09-12T05:09:28;9.93;;;6.35;;
67191;SDS011;54120;53.504;49.426;2022-09-12T05:11:59;9.35;;;6.55;;
67191;SDS011;54120;53.504;49.426;2022-09-12T05:14:31;10.38;;;5.90;;
67191;SDS011;54120;53.504;49.426;2022-09-12T05:17:03;8.93;;;6.22;;
67191;SDS011;54120;53.504;49.426;2022-09-12T05:19:35;7.35;;;6.47;;
67191;SDS011;54120;53.504;49.426;2022-09-12T05:22:07;10.25;;;6.68;;
67191;SDS011;54120;53.504;49.426;2022-09-12T05:24:39;8.57;;;6.25;;
67191;SDS011;54120;53.504;49.426;2022-09-12T05:27:13;9.80;;;6.32;;
67191;SDS011;54120;53.504;49.426;2022-09-12T05:29:44;8.93;;;6.25;;
67191;SDS011;54120;53.504;49.426;2022-09-12T05:32:16;10.52;;;5.78;;
67191;SDS011;54120;53.504;49.426;2022-09-12T05:34:47;8.77;;;5.80;;
67191;SDS011;54120;53.504;49.426;2022-09-12T05:37:19;6.88;;;5.43;;
67191;SDS011;54120;53.504;49.426;2022-09-12T05:39:50;6.28;;;5.18;;
67191;SDS011;54120;53.504;49.426;2022-09-12T05:42:22;7.90;;;5.57;;
67191;SDS011;54120;53.504;49.426;2022-09-12T05:44:53;8.18;;;5.85;;
67191;SDS011;54120;53.504;49.426;2022-09-12T05:47:25;9.07;;;5.65;;
67191;SDS011;54120;53.504;49.426;2022-09-12T05:49:56;9.93;;;5.97;;
67191;SDS011;54120;53.504;49.426;2022-09-12T05:52:28;9.73;;;5.32;;
67191;SDS011;54120;53.504;49.426;2022-09-12T05:55:00;9.20;;;5.38;;
67191;SDS011;54120;53.504;49.426;2022-09-12T05:57:32;11.98;;;5.75;;
67191;SDS011;54120;53.504;49.426;2022-09-12T06:00:03;7.28;;;5.40;;
67191;SDS011;54120;53.504;49.426;2022-09-12T06:02:36;7.70;;;6.30;;
67191;SDS011;54120;53.504;49.426;2022-09-12T06:05:08;7.63;;;5.70;;
67191;SDS011;54120;53.504;49.426;2022-09-12T06:07:39;7.90;;;5.40;;
67191;SDS011;54120;53.504;49.426;2022-09-12T06:10:10;6.85;;;6.07;;
67191;SDS011;54120;53.504;49.426;2022-09-12T06:12:41;9.55;;;6.53;;
67191;SDS011;54120;53.504;49.426;2022-09-12T06:15:13;9.88;;;6.70;;
67191;SDS011;54120;53.504;49.426;2022-09-12T06:17:47;11.68;;;6.60;;
67191;SDS011;54120;53.504;49.426;2022-09-12T06:20:18;7.75;;;6.95;;
67191;SDS011;54120;53.504;49.426;2022-09-12T06:22:52;13.55;;;7.00;;
67191;SDS011;54120;53.504;49.426;2022-09-12T06:25:23;9.25;;;6.85;;
67191;SDS011;54120;53.504;49.426;2022-09-12T06:27:54;10.15;;;7.45;;
67191;SDS011;54120;53.504;49.426;2022-09-12T06:30:26;13.48;;;7.70;;
67191;SDS011;54120;53.504;49.426;2022-09-12T06:32:57;15.60;;;10.65;;
67191;SDS011;54120;53.504;49.426;2022-09-12T06:35:28;8.10;;;7.05;;
67191;SDS011;54120;53.504;49.426;2022-09-12T06:37:59;9.45;;;7.40;;
67191;SDS011;54120;53.504;49.426;2022-09-12T06:40:31;6.72;;;6.05;;
67191;SDS011;54120;53.504;49.426;2022-09-12T06:43:03;8.85;;;5.50;;
67191;SDS011;54120;53.504;49.426;2022-09-12T06:45:35;6.70;;;6.07;;
67191;SDS011;54120;53.504;49.426;2022-09-12T06:48:06;9.30;;;5.30;;
67191;SDS011;54120;53.504;49.426;2022-09-12T06:50:37;12.45;;;5.75;;
67191;SDS011;54120;53.504;49.426;2022-09-12T06:53:09;6.72;;;5.35;;
67191;SDS011;54120;53.504;49.426;2022-09-12T06:55:40;4.95;;;4.55;;
67191;SDS011;54120;53.504;49.426;2022-09-12T06:58:11;9.10;;;5.05;;
67191;SDS011;54120;53.504;49.426;2022-09-12T07:00:42;6.13;;;4.60;;
67191;SDS011;54120;53.504;49.426;2022-09-12T07:03:14;5.55;;;4.80;;
67191;SDS011;54120;53.504;49.426;2022-09-12T07:05:45;5.28;;;4.53;;
67191;SDS011;54120;53.504;49.426;2022-09-12T07:08:17;4.70;;;4.30;;
67191;SDS011;54120;53.504;49.426;2022-09-12T07:10:48;7.35;;;4.80;;
67191;SDS011;54120;53.504;49.426;2022-09-12T07:13:19;5.35;;;4.53;;
67191;SDS011;54120;53.504;49.426;2022-09-12T07:15:51;4.15;;;3.75;;
67191;SDS011;54120;53.504;49.426;2022-09-12T07:18:22;6.18;;;4.10;;
67191;SDS011;54120;53.504;49.426;2022-09-12T07:20:53;4.07;;;3.78;;
67191;SDS011;54120;53.504;49.426;2022-09-12T07:23:25;4.63;;;4.18;;
67191;SDS011;54120;53.504;49.426;2022-09-12T07:25:56;4.32;;;3.80;;
67191;SDS011;54120;53.504;49.426;2022-09-12T07:28:29;3.72;;;3.42;;
67191;SDS011;54120;53.504;49.426;2022-09-12T07:31:15;6.53;;;3.53;;
67191;SDS011;54120;53.504;49.426;2022-09-12T07:33:48;4.18;;;3.70;;
67191;SDS011;54120;53.504;49.426;2022-09-12T07:36:21;3.88;;;3.35;;
67191;SDS011;54120;53.504;49.426;2022-09-12T07:38:54;4.07;;;3.67;;
67191;SDS011;54120;53.504;49.426;2022-09-12T07:41:27;4.15;;;3.28;;
67191;SDS011;54120;53.504;49.426;2022-09-12T07:44:01;3.85;;;3.55;;
67191;SDS011;54120;53.504;49.426;2022-09-12T07:46:33;3.60;;;3.30;;
67191;SDS011;54120;53.504;49.426;2022-09-12T07:49:05;5.03;;;3.88;;
67191;SDS011;54120;53.504;49.426;2022-09-12T07:51:37;3.50;;;3.15;;
67191;SDS011;54120;53.504;49.426;2022-09-12T07:54:08;3.78;;;3.00;;
67191;SDS011;54120;53.504;49.426;2022-09-12T07:56:40;4.45;;;3.30;;
67191;SDS011;54120;53.504;49.426;2022-09-12T07:59:11;3.85;;;3.10;;
67191;SDS011;54120;53.504;49.426;2022-09-12T08:01:43;5.35;;;3.40;;
67191;SDS011;54120;53.504;49.426;2022-09-12T08:04:14;3.88;;;3.15;;
67191;SDS011;54120;53.504;49.426;2022-09-12T08:06:45;4.25;;;3.40;;
67191;SDS011;54120;53.504;49.426;2022-09-12T08:09:16;3.88;;;3.15;;
67191;SDS011;54120;53.504;49.426;2022-09-12T08:11:48;4.65;;;3.80;;
67191;SDS011;54120;53.504;49.426;2022-09-12T08:14:19;3.30;;;3.03;;
67191;SDS011;54120;53.504;49.426;2022-09-12T08:16:51;5.18;;;2.90;;
67191;SDS011;54120;53.504;49.426;2022-09-12T08:19:22;3.95;;;3.13;;
67191;SDS011;54120;53.504;49.426;2022-09-12T08:21:54;4.15;;;3.28;;
67191;SDS011;54120;53.504;49.426;2022-09-12T08:24:25;3.85;;;3.25;;
67191;SDS011;54120;53.504;49.426;2022-09-12T08:26:56;3.70;;;3.03;;
67191;SDS011;54120;53.504;49.426;2022-09-12T08:29:28;7.00;;;3.40;;
67191;SDS011;54120;53.504;49.426;2022-09-12T08:31:59;4.18;;;2.83;;
67191;SDS011;54120;53.504;49.426;2022-09-12T08:34:30;5.03;;;2.97;;
67191;SDS011;54120;53.504;49.426;2022-09-12T08:37:02;6.80;;;3.00;;
67191;SDS011;54120;53.504;49.426;2022-09-12T08:39:33;6.25;;;3.60;;
67191;SDS011;54120;53.504;49.426;2022-09-12T08:42:05;4.43;;;3.40;;
67191;SDS011;54120;53.504;49.426;2022-09-12T08:44:49;5.25;;;3.70;;
67191;SDS011;54120;53.504;49.426;2022-09-12T08:47:38;4.95;;;3.65;;
67191;SDS011;54120;53.504;49.426;2022-09-12T08:50:15;5.43;;;3.95;;
67191;SDS011;54120;53.504;49.426;2022-09-12T08:52:50;3.50;;;3.20;;
67191;SDS011;54120;53.504;49.426;2022-09-12T08:56:12;5.78;;;3.30;;
67191;SDS011;54120;53.504;49.426;2022-09-12T08:58:28;4.10;;;3.40;;
67191;SDS011;54120;53.504;49.426;2022-09-12T09:01:10;5.18;;;3.70;;
67191;SDS011;54120;53.504;49.426;2022-09-12T09:09:40;4.28;;;3.88;;
67191;SDS011;54120;53.504;49.426;2022-09-12T09:18:14;4.45;;;4.10;;
67191;SDS011;54120;53.504;49.426;2022-09-12T09:20:59;4.60;;;4.07;;
67191;SDS011;54120;53.504;49.426;2022-09-12T09:23:40;5.63;;;3.97;;
67191;SDS011;54120;53.504;49.426;2022-09-12T09:26:15;4.32;;;3.92;;
67191;SDS011;54120;53.504;49.426;2022-09-12T09:28:57;4.22;;;3.83;;
67191;SDS011;54120;53.504;49.426;2022-09-12T09:31:38;7.32;;;4.03;;
67191;SDS011;54120;53.504;49.426;2022-09-12T09:34:12;4.80;;;3.20;;
67191;SDS011;54120;53.504;49.426;2022-09-12T09:36:54;3.60;;;3.30;;
67191;SDS011;54120;53.504;49.426;2022-09-12T09:39:53;4.85;;;3.38;;
67191;SDS011;54120;53.504;49.426;2022-09-12T09:46:00;4.85;;;3.20;;
67191;SDS011;54120;53.504;49.426;2022-09-12T09:48:33;3.50;;;3.20;;
67191;SDS011;54120;53.504;49.426;2022-09-12T09:51:07;3.20;;;2.90;;
67191;SDS011;54120;53.504;49.426;2022-09-12T09:53:40;5.25;;;2.80;;
67191;SDS011;54120;53.504;49.426;2022-09-12T09:59:07;3.40;;;2.90;;
67191;SDS011;54120;53.504;49.426;2022-09-12T10:04:54;3.45;;;3.10;;
67191;SDS011;54120;53.504;49.426;2022-09-12T10:07:27;3.28;;;2.97;;
67191;SDS011;54120;53.504;49.426;2022-09-12T10:10:06;3.33;;;3.03;;
67191;SDS011;54120;53.504;49.426;2022-09-12T10:12:45;3.58;;;2.78;;
67191;SDS011;54120;53.504;49.426;2022-09-12T10:17:49;2.50;;;2.30;;
67191;SDS011;54120;53.504;49.426;2022-09-12T10:20:40;3.40;;;2.45;;
67191;SDS011;54120;53.504;49.426;2022-09-12T10:26:11;2.72;;;2.50;;
67191;SDS011;54120;53.504;49.426;2022-09-12T10:28:46;2.60;;;2.40;;
67191;SDS011;54120;53.504;49.426;2022-09-12T10:31:28;2.70;;;2.50;;
67191;SDS011;54120;53.504;49.426;2022-09-12T10:34:18;4.60;;;2.55;;
67191;SDS011;54120;53.504;49.426;2022-09-12T10:36:59;2.65;;;2.45;;
67191;SDS011;54120;53.504;49.426;2022-09-12T10:39:34;2.20;;;2.10;;
67191;SDS011;54120;53.504;49.426;2022-09-12T10:42:09;3.23;;;2.40;;
67191;SDS011;54120;53.504;49.426;2022-09-12T10:44:51;2.92;;;2.67;;
67191;SDS011;54120;53.504;49.426;2022-09-12T10:47:24;3.15;;;1.90;;
67191;SDS011;54120;53.504;49.426;2022-09-12T10:53:19;4.55;;;2.97;;
67191;SDS011;54120;53.504;49.426;2022-09-12T10:55:59;4.78;;;2.90;;
67191;SDS011;54120;53.504;49.426;2022-09-12T10:58:40;2.92;;;2.72;;
67191;SDS011;54120;53.504;49.426;2022-09-12T11:18:40;2.60;;;2.40;;
67191;SDS011;54120;53.504;49.426;2022-09-12T11:24:24;2.20;;;2.10;;
67191;SDS011;54120;53.504;49.426;2022-09-12T11:29:58;4.55;;;2.40;;
67191;SDS011;54120;53.504;49.426;2022-09-12T11:35:52;2.65;;;2.20;;
67191;SDS011;54120;53.504;49.426;2022-09-12T11:41:51;4.93;;;2.50;;
67191;SDS011;54120;53.504;49.426;2022-09-12T11:44:19;2.67;;;2.47;;
67191;SDS011;54120;53.504;49.426;2022-09-12T11:47:04;3.30;;;3.00;;
67191;SDS011;54120;53.504;49.426;2022-09-12T11:49:48;3.00;;;2.67;;
67191;SDS011;54120;53.504;49.426;2022-09-12T11:52:22;2.67;;;2.47;;
67191;SDS011;54120;53.504;49.426;2022-09-12T11:57:53;4.32;;;2.45;;
67191;SDS011;54120;53.504;49.426;2022-09-12T12:00:45;4.65;;;2.45;;
67191;SDS011;54120;53.504;49.426;2022-09-12T12:03:37;4.32;;;2.63;;
67191;SDS011;54120;53.504;49.426;2022-09-12T12:08:55;3.58;;;2.90;;
67191;SDS011;54120;53.504;49.426;2022-09-12T12:11:37;3.28;;;2.97;;
67191;SDS011;54120;53.504;49.426;2022-09-12T12:14:36;5.10;;;3.30;;
67191;SDS011;54120;53.504;49.426;2022-09-12T12:17:28;3.08;;;2.70;;
67191;SDS011;54120;53.504;49.426;2022-09-12T12:20:01;4.60;;;2.78;;
67191;SDS011;54120;53.504;49.426;2022-09-12T12:22:34;4.13;;;3.15;;
67191;SDS011;54120;53.504;49.426;2022-09-12T12:33:50;2.83;;;2.63;;
67191;SDS011;54120;53.504;49.426;2022-09-12T12:38:32;5.25;;;3.00;;
67191;SDS011;54120;53.504;49.426;2022-09-12T12:43:51;3.17;;;2.92;;
67191;SDS011;54120;53.504;49.426;2022-09-12T12:46:26;6.47;;;3.42;;
67191;SDS011;54120;53.504;49.426;2022-09-12T12:49:21;6.40;;;2.97;;
67191;SDS011;54120;53.504;49.426;2022-09-12T12:52:00;5.13;;;3.08;;
67191;SDS011;54120;53.504;49.426;2022-09-12T12:57:16;3.45;;;3.05;;
67191;SDS011;54120;53.504;49.426;2022-09-12T13:02:30;2.50;;;2.30;;
67191;SDS011;54120;53.504;49.426;2022-09-12T13:05:05;2.80;;;2.60;;
67191;SDS011;54120;53.504;49.426;2022-09-12T13:07:52;3.92;;;2.72;;
67191;SDS011;54120;53.504;49.426;2022-09-12T13:10:27;2.90;;;2.70;;
67191;SDS011;54120;53.504;49.426;2022-09-12T13:13:00;5.50;;;3.28;;
67191;SDS011;54120;53.504;49.426;2022-09-12T13:18:08;3.35;;;2.80;;
67191;SDS011;54120;53.504;49.426;2022-09-12T13:23:27;6.63;;;2.80;;
67191;SDS011;54120;53.504;49.426;2022-09-12T13:26:01;4.68;;;3.40;;
67191;SDS011;54120;53.504;49.426;2022-09-12T13:28:33;3.22;;;2.97;;
67191;SDS011;54120;53.504;49.426;2022-09-12T13:31:09;3.92;;;3.20;;
67191;SDS011;54120;53.504;49.426;2022-09-12T13:33:57;3.70;;;2.80;;
67191;SDS011;54120;53.504;49.426;2022-09-12T13:48:03;3.35;;;3.05;;
67191;SDS011;54120;53.504;49.426;2022-09-12T13:50:53;3.20;;;2.90;;
67191;SDS011;54120;53.504;49.426;2022-09-12T13:53:41;4.95;;;2.75;;
67191;SDS011;54120;53.504;49.426;2022-09-12T13:56:17;3.70;;;3.20;;
67191;SDS011;54120;53.504;49.426;2022-09-12T13:58:53;3.40;;;3.03;;
67191;SDS011;54120;53.504;49.426;2022-09-12T14:01:37;4.97;;;3.50;;
67191;SDS011;54120;53.504;49.426;2022-09-12T14:04:20;4.18;;;2.90;;
67191;SDS011;54120;53.504;49.426;2022-09-12T14:07:15;5.72;;;2.80;;
67191;SDS011;54120;53.504;49.426;2022-09-12T14:09:53;3.42;;;2.78;;
67191;SDS011;54120;53.504;49.426;2022-09-12T14:12:36;2.88;;;2.60;;
67191;SDS011;54120;53.504;49.426;2022-09-12T14:15:14;2.92;;;2.70;;
67191;SDS011;54120;53.504;49.426;2022-09-12T14:17:54;5.80;;;3.20;;
67191;SDS011;54120;53.504;49.426;2022-09-12T14:20:30;4.45;;;3.30;;
67191;SDS011;54120;53.504;49.426;2022-09-12T14:23:17;3.58;;;3.10;;
67191;SDS011;54120;53.504;49.426;2022-09-12T14:25:49;3.45;;;3.15;;
67191;SDS011;54120;53.504;49.426;2022-09-12T14:28:21;3.97;;;3.10;;
67191;SDS011;54120;53.504;49.426;2022-09-12T14:31:01;8.25;;;3.40;;
67191;SDS011;54120;53.504;49.426;2022-09-12T14:33:50;4.45;;;3.40;;
67191;SDS011;54120;53.504;49.426;2022-09-12T14:38:58;4.15;;;3.00;;
67191;SDS011;54120;53.504;49.426;2022-09-12T14:41:33;4.30;;;3.05;;
67191;SDS011;54120;53.504;49.426;2022-09-12T14:44:09;5.60;;;3.38;;
67191;SDS011;54120;53.504;49.426;2022-09-12T14:46:53;4.75;;;3.25;;
67191;SDS011;54120;53.504;49.426;2022-09-12T14:49:30;5.03;;;2.92;;
67191;SDS011;54120;53.504;49.426;2022-09-12T14:52:07;5.30;;;3.63;;
67191;SDS011;54120;53.504;49.426;2022-09-12T14:54:56;5.55;;;3.70;;
67191;SDS011;54120;53.504;49.426;2022-09-12T14:57:48;4.68;;;3.65;;
67191;SDS011;54120;53.504;49.426;2022-09-12T15:00:52;6.35;;;3.70;;
67191;SDS011;54120;53.504;49.426;2022-09-12T15:03:32;4.90;;;4.18;;
67191;SDS011;54120;53.504;49.426;2022-09-12T15:06:05;5.50;;;3.75;;
67191;SDS011;54120;53.504;49.426;2022-09-12T15:08:52;5.25;;;4.40;;
67191;SDS011;54120;53.504;49.426;2022-09-12T15:11:25;6.00;;;4.75;;
67191;SDS011;54120;53.504;49.426;2022-09-12T15:13:56;5.22;;;4.65;;
67191;SDS011;54120;53.504;49.426;2022-09-12T15:16:27;9.10;;;4.75;;
67191;SDS011;54120;53.504;49.426;2022-09-12T15:18:58;7.47;;;4.68;;
67191;SDS011;54120;53.504;49.426;2022-09-12T15:21:30;6.50;;;5.03;;
67191;SDS011;54120;53.504;49.426;2022-09-12T15:24:01;5.85;;;4.97;;
67191;SDS011;54120;53.504;49.426;2022-09-12T15:26:32;8.13;;;5.82;;
67191;SDS011;54120;53.504;49.426;2022-09-12T15:29:04;10.18;;;6.60;;
67191;SDS011;54120;53.504;49.426;2022-09-12T15:31:35;9.85;;;6.88;;
67191;SDS011;54120;53.504;49.426;2022-09-12T15:34:07;11.68;;;6.65;;
67191;SDS011;54120;53.504;49.426;2022-09-12T15:36:39;8.32;;;6.70;;
67191;SDS011;54120;53.504;49.426;2022-09-12T15:39:10;11.07;;;6.10;;
67191;SDS011;54120;53.504;49.426;2022-09-12T15:41:41;8.18;;;6.10;;
67191;SDS011;54120;53.504;49.426;2022-09-12T15:44:13;8.43;;;6.32;;
67191;SDS011;54120;53.504;49.426;2022-09-12T15:46:44;10.82;;;6.32;;
67191;SDS011;54120;53.504;49.426;2022-09-12T15:49:16;7.18;;;5.63;;
67191;SDS011;54120;53.504;49.426;2022-09-12T15:51:49;8.85;;;6.05;;
67191;SDS011;54120;53.504;49.426;2022-09-12T15:54:20;8.40;;;6.05;;
67191;SDS011;54120;53.504;49.426;2022-09-12T15:56:51;14.70;;;6.28;;
67191;SDS011;54120;53.504;49.426;2022-09-12T15:59:23;8.48;;;6.47;;
67191;SDS011;54120;53.504;49.426;2022-09-12T16:01:54;10.05;;;6.05;;
67191;SDS011;54120;53.504;49.426;2022-09-12T16:04:26;10.85;;;6.15;;
67191;SDS011;54120;53.504;49.426;2022-09-12T16:07:00;9.15;;;5.57;;
67191;SDS011;54120;53.504;49.426;2022-09-12T16:09:32;9.55;;;5.32;;
67191;SDS011;54120;53.504;49.426;2022-09-12T16:12:04;6.53;;;4.82;;
67191;SDS011;54120;53.504;49.426;2022-09-12T16:14:35;8.50;;;4.88;;
67191;SDS011;54120;53.504;49.426;2022-09-12T16:17:06;6.35;;;5.75;;
67191;SDS011;54120;53.504;49.426;2022-09-12T16:19:38;8.10;;;4.60;;
67191;SDS011;54120;53.504;49.426;2022-09-12T16:22:09;6.05;;;5.32;;
67191;SDS011;54120;53.504;49.426;2022-09-12T16:24:40;6.93;;;5.65;;
67191;SDS011;54120;53.504;49.426;2022-09-12T16:27:12;8.18;;;5.72;;
67191;SDS011;54120;53.504;49.426;2022-09-12T16:29:43;7.90;;;5.85;;
67191;SDS011;54120;53.504;49.426;2022-09-12T16:32:14;8.02;;;6.35;;
67191;SDS011;54120;53.504;49.426;2022-09-12T16:34:46;8.57;;;6.50;;
67191;SDS011;54120;53.504;49.426;2022-09-12T16:37:17;11.02;;;6.35;;
67191;SDS011;54120;53.504;49.426;2022-09-12T16:39:48;9.38;;;6.38;;
67191;SDS011;54120;53.504;49.426;2022-09-12T16:42:19;9.45;;;6.00;;
67191;SDS011;54120;53.504;49.426;2022-09-12T16:44:51;7.53;;;6.15;;
67191;SDS011;54120;53.504;49.426;2022-09-12T16:47:22;11.43;;;6.72;;
67191;SDS011;54120;53.504;49.426;2022-09-12T16:49:53;10.65;;;7.50;;
67191;SDS011;54120;53.504;49.426;2022-09-12T16:52:25;19.42;;;11.75;;
67191;SDS011;54120;53.504;49.426;2022-09-12T16:54:56;10.50;;;5.60;;
67191;SDS011;54120;53.504;49.426;2022-09-12T16:57:27;9.20;;;5.80;;
67191;SDS011;54120;53.504;49.426;2022-09-12T16:59:59;10.60;;;5.72;;
67191;SDS011;54120;53.504;49.426;2022-09-12T17:02:30;8.07;;;6.07;;
67191;SDS011;54120;53.504;49.426;2022-09-12T17:05:01;9.75;;;5.57;;
67191;SDS011;54120;53.504;49.426;2022-09-12T17:07:32;9.93;;;6.20;;
67191;SDS011;54120;53.504;49.426;2022-09-12T17:10:04;13.27;;;5.82;;
67191;SDS011;54120;53.504;49.426;2022-09-12T17:12:35;10.90;;;6.43;;
67191;SDS011;54120;53.504;49.426;2022-09-12T17:15:07;10.35;;;6.40;;
67191;SDS011;54120;53.504;49.426;2022-09-12T17:17:38;11.23;;;5.75;;
67191;SDS011;54120;53.504;49.426;2022-09-12T17:20:09;13.70;;;6.15;;
67191;SDS011;54120;53.504;49.426;2022-09-12T17:22:41;10.50;;;6.53;;
67191;SDS011;54120;53.504;49.426;2022-09-12T17:25:12;10.75;;;6.28;;
67191;SDS011;54120;53.504;49.426;2022-09-12T17:27:43;7.70;;;6.15;;
67191;SDS011;54120;53.504;49.426;2022-09-12T17:30:14;10.30;;;6.45;;
67191;SDS011;54120;53.504;49.426;2022-09-12T17:32:46;11.43;;;6.38;;
67191;SDS011;54120;53.504;49.426;2022-09-12T17:35:17;10.20;;;6.50;;
67191;SDS011;54120;53.504;49.426;2022-09-12T17:37:48;11.57;;;6.70;;
67191;SDS011;54120;53.504;49.426;2022-09-12T17:40:20;13.57;;;6.95;;
67191;SDS011;54120;53.504;49.426;2022-09-12T17:42:51;13.27;;;6.22;;
67191;SDS011;54120;53.504;49.426;2022-09-12T17:45:22;9.55;;;6.30;;
67191;SDS011;54120;53.504;49.426;2022-09-12T17:47:53;10.90;;;6.10;;
67191;SDS011;54120;53.504;49.426;2022-09-12T17:50:25;14.00;;;6.55;;
67191;SDS011;54120;53.504;49.426;2022-09-12T17:52:56;8.48;;;6.32;;
67191;SDS011;54120;53.504;49.426;2022-09-12T17:55:27;9.15;;;6.05;;
67191;SDS011;54120;53.504;49.426;2022-09-12T17:58:02;12.52;;;6.13;;